createdAt,value
2018-02-03T00:01:03.523Z,0.00
2018-02-03T00:02:09.025Z,0.00
2018-02-03T00:03:14.536Z,0.00
2018-02-03T00:04:21.059Z,0.00
2018-02-03T00:05:25.565Z,0.00
2018-02-03T00:06:31.046Z,0.00
2018-02-03T00:07:36.584Z,0.00
2018-02-03T00:08:42.107Z,0.00
2018-02-03T00:09:47.590Z,0.00
2018-02-03T00:10:54.097Z,0.00
2018-02-03T00:11:58.638Z,0.00
2018-02-03T00:13:04.094Z,0.00
2018-02-03T00:14:09.625Z,0.00
2018-02-03T00:15:15.110Z,0.00
2018-02-03T00:16:20.619Z,0.00
2018-02-03T00:17:27.167Z,0.00
2018-02-03T00:18:31.650Z,0.00
2018-02-03T00:19:37.174Z,0.00
2018-02-03T00:20:42.670Z,0.00
2018-02-03T00:21:48.178Z,0.00
2018-02-03T00:22:53.679Z,0.00
2018-02-03T00:24:00.218Z,0.00
2018-02-03T00:25:04.691Z,0.00
2018-02-03T00:26:10.180Z,0.00
2018-02-03T00:27:15.739Z,0.00
2018-02-03T00:28:21.238Z,0.00
2018-02-03T00:29:26.713Z,0.00
2018-02-03T00:30:33.260Z,0.00
2018-02-03T00:31:37.729Z,0.00
2018-02-03T00:32:43.261Z,0.00
2018-02-03T00:33:48.805Z,0.00
2018-02-03T00:34:54.252Z,0.00
2018-02-03T00:35:59.779Z,0.00
2018-02-03T00:37:06.278Z,0.00
2018-02-03T00:38:10.788Z,0.00
2018-02-03T00:39:16.290Z,0.00
2018-02-03T00:40:21.804Z,0.00
2018-02-03T00:41:27.335Z,0.00
2018-02-03T00:42:32.805Z,0.00
2018-02-03T00:43:39.329Z,0.00
2018-02-03T00:44:43.814Z,0.00
2018-02-03T00:45:49.340Z,0.00
2018-02-03T00:46:54.841Z,0.00
2018-02-03T00:48:00.354Z,0.00
2018-02-03T00:49:05.858Z,0.00
2018-02-03T00:50:12.383Z,0.00
2018-02-03T00:51:16.870Z,0.00
2018-02-03T00:52:22.369Z,0.00
2018-02-03T00:53:27.901Z,0.00
2018-02-03T00:54:33.413Z,0.00
2018-02-03T00:55:38.905Z,0.00
2018-02-03T00:56:45.427Z,0.00
2018-02-03T00:57:49.926Z,0.00
2018-02-03T00:58:55.437Z,0.00
2018-02-03T01:00:00.950Z,0.00
2018-02-03T01:01:06.442Z,0.00
2018-02-03T01:02:11.964Z,0.00
2018-02-03T01:03:18.480Z,0.00
2018-02-03T01:04:22.959Z,0.00
2018-02-03T01:05:28.464Z,0.00
2018-02-03T01:06:34.069Z,0.00
2018-02-03T01:07:39.499Z,0.00
2018-02-03T01:08:44.999Z,0.00
2018-02-03T01:09:51.518Z,0.00
2018-02-03T01:10:56.017Z,0.00
2018-02-03T01:12:01.510Z,0.00
2018-02-03T01:13:07.047Z,0.00
2018-02-03T01:14:12.537Z,0.00
2018-02-03T01:15:18.046Z,0.00
2018-02-03T01:16:24.576Z,0.00
2018-02-03T01:17:29.049Z,0.00
2018-02-03T01:18:34.565Z,0.00
2018-02-03T01:19:40.065Z,0.00
2018-02-03T01:20:45.596Z,0.00
2018-02-03T01:21:51.084Z,0.00
2018-02-03T01:22:57.609Z,0.00
2018-02-03T01:24:02.101Z,0.00
2018-02-03T01:25:07.612Z,0.00
2018-02-03T01:26:13.111Z,0.00
2018-02-03T01:27:18.645Z,0.00
2018-02-03T01:28:24.134Z,0.00
2018-02-03T01:29:30.656Z,0.00
2018-02-03T01:30:35.168Z,0.00
2018-02-03T01:31:40.660Z,0.00
2018-02-03T01:32:46.168Z,0.00
2018-02-03T01:33:51.699Z,0.00
2018-02-03T01:34:57.198Z,0.00
2018-02-03T01:36:03.702Z,0.00
2018-02-03T01:37:08.197Z,0.00
2018-02-03T01:38:13.702Z,0.00
2018-02-03T01:39:19.223Z,0.00
2018-02-03T01:40:24.736Z,0.00
2018-02-03T01:41:30.222Z,0.00
2018-02-03T01:42:36.744Z,0.00
2018-02-03T01:43:41.254Z,0.00
2018-02-03T01:44:46.743Z,0.00
2018-02-03T01:45:52.254Z,0.00
2018-02-03T01:46:57.771Z,0.00
2018-02-03T01:48:03.273Z,0.00
2018-02-03T01:49:09.798Z,0.00
2018-02-03T01:50:14.286Z,0.00
2018-02-03T01:51:19.798Z,0.00
2018-02-03T01:52:25.302Z,0.00
2018-02-03T01:53:30.812Z,0.00
2018-02-03T01:54:36.333Z,0.00
2018-02-03T01:55:42.849Z,0.00
2018-02-03T01:56:47.331Z,0.00
2018-02-03T01:57:52.839Z,0.00
2018-02-03T01:58:58.339Z,0.00
2018-02-03T02:00:03.863Z,0.00
2018-02-03T02:01:09.358Z,0.00
2018-02-03T02:02:15.886Z,0.00
2018-02-03T02:03:20.380Z,0.00
2018-02-03T02:04:25.905Z,0.00
2018-02-03T02:05:31.476Z,0.00
2018-02-03T02:06:36.922Z,0.00
2018-02-03T02:07:42.399Z,0.00
2018-02-03T02:08:48.930Z,0.00
2018-02-03T02:09:53.424Z,0.00
2018-02-03T02:10:58.953Z,0.00
2018-02-03T02:12:04.450Z,0.00
2018-02-03T02:13:09.955Z,0.00
2018-02-03T02:14:15.461Z,0.00
2018-02-03T02:15:21.978Z,0.00
2018-02-03T02:16:26.490Z,0.00
2018-02-03T02:17:31.985Z,0.00
2018-02-03T02:18:37.473Z,0.00
2018-02-03T02:19:42.993Z,0.00
2018-02-03T02:20:48.506Z,0.00
2018-02-03T02:21:55.026Z,0.00
2018-02-03T02:22:59.510Z,0.00
2018-02-03T02:24:05.036Z,0.00
2018-02-03T02:25:10.525Z,0.00
2018-02-03T02:26:16.037Z,0.00
2018-02-03T02:27:21.566Z,0.00
2018-02-03T02:28:28.053Z,0.00
2018-02-03T02:29:32.571Z,0.00
2018-02-03T02:30:38.077Z,0.00
2018-02-03T02:31:43.582Z,0.00
2018-02-03T02:32:49.082Z,0.00
2018-02-03T02:33:54.595Z,0.00
2018-02-03T02:35:01.130Z,0.00
2018-02-03T02:36:05.603Z,0.00
2018-02-03T02:37:11.120Z,0.00
2018-02-03T02:38:16.652Z,0.00
2018-02-03T02:39:22.122Z,0.00
2018-02-03T02:40:27.638Z,0.00
2018-02-03T02:41:34.164Z,0.00
2018-02-03T02:42:38.647Z,0.00
2018-02-03T02:43:44.155Z,0.00
2018-02-03T02:44:49.671Z,0.00
2018-02-03T02:45:55.169Z,0.00
2018-02-03T02:47:00.691Z,0.00
2018-02-03T02:48:07.218Z,0.00
2018-02-03T02:49:11.710Z,0.00
2018-02-03T02:50:17.202Z,0.00
2018-02-03T02:51:22.720Z,0.00
2018-02-03T02:52:28.236Z,0.00
2018-02-03T02:53:33.733Z,0.00
2018-02-03T02:54:40.254Z,0.00
2018-02-03T02:55:44.750Z,0.00
2018-02-03T02:56:50.271Z,0.00
2018-02-03T02:57:55.755Z,0.00
2018-02-03T02:59:01.267Z,0.00
2018-02-03T03:00:06.771Z,0.00
2018-02-03T03:01:13.366Z,0.00
2018-02-03T03:02:17.790Z,0.00
2018-02-03T03:03:23.296Z,0.00
2018-02-03T03:04:28.803Z,0.00
2018-02-03T03:05:34.327Z,0.00
2018-02-03T03:06:39.829Z,0.00
2018-02-03T03:07:46.371Z,0.00
2018-02-03T03:08:50.835Z,0.00
2018-02-03T03:09:56.339Z,0.00
2018-02-03T03:11:01.863Z,0.00
2018-02-03T03:12:07.355Z,0.00
2018-02-03T03:13:12.864Z,0.00
2018-02-03T03:14:19.386Z,0.00
2018-02-03T03:15:23.890Z,0.00
2018-02-03T03:16:29.400Z,0.00
2018-02-03T03:17:34.892Z,0.00
2018-02-03T03:18:40.405Z,0.00
2018-02-03T03:19:45.941Z,0.00
2018-02-03T03:20:52.420Z,0.00
2018-02-03T03:21:56.945Z,0.00
2018-02-03T03:23:02.437Z,0.00
2018-02-03T03:24:07.936Z,0.00
2018-02-03T03:25:13.457Z,0.00
2018-02-03T03:26:18.956Z,0.00
2018-02-03T03:27:25.472Z,0.00
2018-02-03T03:28:29.971Z,0.00
2018-02-03T03:29:35.477Z,0.00
2018-02-03T03:30:40.981Z,0.00
2018-02-03T03:31:46.486Z,0.00
2018-02-03T03:32:51.996Z,0.00
2018-02-03T03:33:58.514Z,0.00
2018-02-03T03:35:03.013Z,0.00
2018-02-03T03:36:08.523Z,0.00
2018-02-03T03:37:14.041Z,0.00
2018-02-03T03:38:19.531Z,0.00
2018-02-03T03:39:25.117Z,0.00
2018-02-03T03:40:31.563Z,0.00
2018-02-03T03:41:36.064Z,0.00
2018-02-03T03:42:41.572Z,0.00
2018-02-03T03:43:47.070Z,0.00
2018-02-03T03:44:52.570Z,0.00
2018-02-03T03:45:58.089Z,0.00
2018-02-03T03:47:04.602Z,0.00
2018-02-03T03:48:09.096Z,0.00
2018-02-03T03:49:14.603Z,0.00
2018-02-03T03:50:20.106Z,0.00
2018-02-03T03:51:25.607Z,0.00
2018-02-03T03:52:31.124Z,0.00
2018-02-03T03:53:37.645Z,0.00
2018-02-03T03:54:42.133Z,0.00
2018-02-03T03:55:47.638Z,0.00
2018-02-03T03:56:53.156Z,0.00
2018-02-03T03:57:58.657Z,0.00
2018-02-03T03:59:04.170Z,0.00
2018-02-03T04:00:10.679Z,0.00
2018-02-03T04:01:15.175Z,0.00
2018-02-03T04:02:20.688Z,0.00
2018-02-03T04:03:26.194Z,0.00
2018-02-03T04:04:31.708Z,0.00
2018-02-03T04:05:37.223Z,0.00
2018-02-03T04:06:43.745Z,0.00
2018-02-03T04:07:48.224Z,0.00
2018-02-03T04:08:53.728Z,0.00
2018-02-03T04:09:59.240Z,0.00
2018-02-03T04:11:04.750Z,0.00
2018-02-03T04:12:10.251Z,0.00
2018-02-03T04:13:16.774Z,0.00
2018-02-03T04:14:21.265Z,0.00
2018-02-03T04:15:26.787Z,0.00
2018-02-03T04:16:32.282Z,0.00
2018-02-03T04:17:37.777Z,0.00
2018-02-03T04:18:43.293Z,0.00
2018-02-03T04:19:49.810Z,0.00
2018-02-03T04:20:54.300Z,0.00
2018-02-03T04:21:59.846Z,0.00
2018-02-03T04:23:05.315Z,0.00
2018-02-03T04:24:10.824Z,0.00
2018-02-03T04:25:16.351Z,0.00
2018-02-03T04:26:22.862Z,0.00
2018-02-03T04:27:27.405Z,0.00
2018-02-03T04:28:32.854Z,0.00
2018-02-03T04:29:38.366Z,0.00
2018-02-03T04:30:43.923Z,0.00
2018-02-03T04:31:49.384Z,0.00
2018-02-03T04:32:55.896Z,0.00
2018-02-03T04:34:00.392Z,0.00
2018-02-03T04:35:05.921Z,0.00
2018-02-03T04:36:11.408Z,0.00
2018-02-03T04:37:16.908Z,0.00
2018-02-03T04:38:22.427Z,0.00
2018-02-03T04:39:28.935Z,0.00
2018-02-03T04:40:33.436Z,0.00
2018-02-03T04:41:38.945Z,0.00
2018-02-03T04:42:44.442Z,0.00
2018-02-03T04:43:49.963Z,0.00
2018-02-03T04:44:55.469Z,0.00
2018-02-03T04:46:01.995Z,0.00
2018-02-03T04:47:06.485Z,0.00
2018-02-03T04:48:11.992Z,0.00
2018-02-03T04:49:17.487Z,0.00
2018-02-03T04:50:22.990Z,0.00
2018-02-03T04:51:28.517Z,0.00
2018-02-03T04:52:35.020Z,0.00
2018-02-03T04:53:39.518Z,0.00
2018-02-03T04:54:45.055Z,0.00
2018-02-03T04:55:50.544Z,0.00
2018-02-03T04:56:56.031Z,0.00
2018-02-03T04:58:01.571Z,0.00
2018-02-03T04:59:08.071Z,0.00
2018-02-03T05:00:12.579Z,0.00
2018-02-03T05:01:18.075Z,0.00
2018-02-03T05:02:23.578Z,0.00
2018-02-03T05:03:29.092Z,0.00
2018-02-03T05:04:34.594Z,0.00
2018-02-03T05:05:41.106Z,0.00
2018-02-03T05:06:45.613Z,0.00
2018-02-03T05:07:51.112Z,0.00
2018-02-03T05:08:56.617Z,0.00
2018-02-03T05:10:02.132Z,0.00
2018-02-03T05:11:07.631Z,0.00
2018-02-03T05:12:14.176Z,0.00
2018-02-03T05:13:18.672Z,0.00
2018-02-03T05:14:24.159Z,0.00
2018-02-03T05:15:29.666Z,0.00
2018-02-03T05:16:35.172Z,0.00
2018-02-03T05:17:40.676Z,0.00
2018-02-03T05:18:47.204Z,0.00
2018-02-03T05:19:51.703Z,0.00
2018-02-03T05:20:57.203Z,0.00
2018-02-03T05:22:02.713Z,0.00
2018-02-03T05:23:08.216Z,0.00
2018-02-03T05:24:13.730Z,0.00
2018-02-03T05:25:20.235Z,0.00
2018-02-03T05:26:24.735Z,0.00
2018-02-03T05:27:30.252Z,0.00
2018-02-03T05:28:35.756Z,0.00
2018-02-03T05:29:41.254Z,0.00
2018-02-03T05:30:46.770Z,0.00
2018-02-03T05:31:53.280Z,0.00
2018-02-03T05:32:57.776Z,0.00
2018-02-03T05:34:03.295Z,0.00
2018-02-03T05:35:08.793Z,0.00
2018-02-03T05:36:14.309Z,0.00
2018-02-03T05:37:19.824Z,0.00
2018-02-03T05:38:26.334Z,0.00
2018-02-03T05:39:30.812Z,0.00
2018-02-03T05:40:36.349Z,0.00
2018-02-03T05:41:41.850Z,0.00
2018-02-03T05:42:47.357Z,0.00
2018-02-03T05:43:52.868Z,0.00
2018-02-03T05:44:59.364Z,0.00
2018-02-03T05:46:03.890Z,0.00
2018-02-03T05:47:09.372Z,0.00
2018-02-03T05:48:14.882Z,0.00
2018-02-03T05:49:20.390Z,0.00
2018-02-03T05:50:25.891Z,0.00
2018-02-03T05:51:32.415Z,0.00
2018-02-03T05:52:36.905Z,0.00
2018-02-03T05:53:42.432Z,0.00
2018-02-03T05:54:47.934Z,0.00
2018-02-03T05:55:53.432Z,0.00
2018-02-03T05:56:58.931Z,0.00
2018-02-03T05:58:05.451Z,0.00
2018-02-03T05:59:09.950Z,0.00
2018-02-03T06:00:15.469Z,0.00
2018-02-03T06:01:20.974Z,0.00
2018-02-03T06:02:26.481Z,0.00
2018-02-03T06:03:31.980Z,0.00
2018-02-03T06:04:38.495Z,0.00
2018-02-03T06:05:42.994Z,0.00
2018-02-03T06:06:48.499Z,0.00
2018-02-03T06:07:54.031Z,0.00
2018-02-03T06:08:59.519Z,0.00
2018-02-03T06:10:05.018Z,0.00
2018-02-03T06:11:11.548Z,0.00
2018-02-03T06:12:16.065Z,0.00
2018-02-03T06:13:21.546Z,0.00
2018-02-03T06:14:27.053Z,0.00
2018-02-03T06:15:32.564Z,0.00
2018-02-03T06:16:38.066Z,0.00
2018-02-03T06:17:44.603Z,0.00
2018-02-03T06:18:49.079Z,0.00
2018-02-03T06:19:54.587Z,0.00
2018-02-03T06:21:00.105Z,0.00
2018-02-03T06:22:05.600Z,0.00
2018-02-03T06:23:11.120Z,0.00
2018-02-03T06:24:17.623Z,0.00
2018-02-03T06:25:22.125Z,0.00
2018-02-03T06:26:27.622Z,0.00
2018-02-03T06:27:33.140Z,0.00
2018-02-03T06:28:38.645Z,0.00
2018-02-03T06:29:44.148Z,0.00
2018-02-03T06:30:50.672Z,0.00
2018-02-03T06:31:55.161Z,0.00
2018-02-03T06:33:00.671Z,0.00
2018-02-03T06:34:06.183Z,0.00
2018-02-03T06:35:11.686Z,0.00
2018-02-03T06:36:17.190Z,0.00
2018-02-03T06:37:23.705Z,0.00
2018-02-03T06:38:28.203Z,0.00
2018-02-03T06:39:33.729Z,0.00
2018-02-03T06:40:39.212Z,0.00
2018-02-03T06:41:44.721Z,0.00
2018-02-03T06:42:50.287Z,0.00
2018-02-03T06:43:56.739Z,0.00
2018-02-03T06:45:01.257Z,0.00
2018-02-03T06:46:06.756Z,0.00
2018-02-03T06:47:12.259Z,4.00
2018-02-03T06:48:17.785Z,4.00
2018-02-03T06:49:23.286Z,0.00
2018-02-03T06:50:29.796Z,0.00
2018-02-03T06:51:34.292Z,4.00
2018-02-03T06:52:39.822Z,4.00
2018-02-03T06:53:45.313Z,0.00
2018-02-03T06:54:50.813Z,4.00
2018-02-03T06:55:56.310Z,4.00
2018-02-03T06:57:02.893Z,4.00
2018-02-03T06:58:07.324Z,4.00
2018-02-03T06:59:12.829Z,8.00
2018-02-03T07:00:18.354Z,4.00
2018-02-03T07:01:23.855Z,8.00
2018-02-03T07:02:29.366Z,8.00
2018-02-03T07:03:35.869Z,12.00
2018-02-03T07:04:40.363Z,12.00
2018-02-03T07:05:45.900Z,12.00
2018-02-03T07:06:51.380Z,12.00
2018-02-03T07:07:56.893Z,16.00
2018-02-03T07:09:02.416Z,16.00
2018-02-03T07:10:08.912Z,20.00
2018-02-03T07:11:13.409Z,20.00
2018-02-03T07:12:18.928Z,20.00
2018-02-03T07:13:24.430Z,20.00
2018-02-03T07:14:29.926Z,24.00
2018-02-03T07:15:35.456Z,24.00
2018-02-03T07:16:41.970Z,24.00
2018-02-03T07:17:46.455Z,24.00
2018-02-03T07:18:51.991Z,28.00
2018-02-03T07:19:57.476Z,32.00
2018-02-03T07:21:02.988Z,32.00
2018-02-03T07:22:08.488Z,36.00
2018-02-03T07:23:15.020Z,36.00
2018-02-03T07:24:19.500Z,40.00
2018-02-03T07:25:25.004Z,40.00
2018-02-03T07:26:30.525Z,40.00
2018-02-03T07:27:36.025Z,44.00
2018-02-03T07:28:41.526Z,44.00
2018-02-03T07:29:48.051Z,44.00
2018-02-03T07:30:52.547Z,48.00
2018-02-03T07:31:58.053Z,52.00
2018-02-03T07:33:03.546Z,52.00
2018-02-03T07:34:09.067Z,52.00
2018-02-03T07:35:14.571Z,52.00
2018-02-03T07:36:21.100Z,52.00
2018-02-03T07:37:25.580Z,56.00
2018-02-03T07:38:31.089Z,60.00
2018-02-03T07:39:36.592Z,60.00
2018-02-03T07:40:42.103Z,64.00
2018-02-03T07:41:47.622Z,68.00
2018-02-03T07:42:54.168Z,68.00
2018-02-03T07:43:58.706Z,68.00
2018-02-03T07:45:04.142Z,76.00
2018-02-03T07:46:09.667Z,80.00
2018-02-03T07:47:15.147Z,80.00
2018-02-03T07:48:20.670Z,88.00
2018-02-03T07:49:27.170Z,92.00
2018-02-03T07:50:31.674Z,104.00
2018-02-03T07:51:37.174Z,108.00
2018-02-03T07:52:42.684Z,116.00
2018-02-03T07:53:48.185Z,112.00
2018-02-03T07:54:53.692Z,112.00
2018-02-03T07:56:00.220Z,116.00
2018-02-03T07:57:04.736Z,112.00
2018-02-03T07:58:10.236Z,116.00
2018-02-03T07:59:15.724Z,120.00
2018-02-03T08:00:21.232Z,128.00
2018-02-03T08:01:26.732Z,108.00
2018-02-03T08:02:33.250Z,112.00
2018-02-03T08:03:37.755Z,148.00
2018-02-03T08:04:43.274Z,148.00
2018-02-03T08:05:48.781Z,152.00
2018-02-03T08:06:54.296Z,156.00
2018-02-03T08:07:59.793Z,156.00
2018-02-03T08:09:06.292Z,160.00
2018-02-03T08:10:10.801Z,164.00
2018-02-03T08:11:16.320Z,168.00
2018-02-03T08:12:21.804Z,172.00
2018-02-03T08:13:27.315Z,176.00
2018-02-03T08:14:32.810Z,180.00
2018-02-03T08:15:39.352Z,136.00
2018-02-03T08:16:43.831Z,136.00
2018-02-03T08:17:49.361Z,192.00
2018-02-03T08:18:54.861Z,200.00
2018-02-03T08:20:00.354Z,196.00
2018-02-03T08:21:05.861Z,196.00
2018-02-03T08:22:12.376Z,204.00
2018-02-03T08:23:16.879Z,208.00
2018-02-03T08:24:22.383Z,208.00
2018-02-03T08:25:27.885Z,208.00
2018-02-03T08:26:33.423Z,216.00
2018-02-03T08:27:38.898Z,220.00
2018-02-03T08:28:45.442Z,228.00
2018-02-03T08:29:49.914Z,240.00
2018-02-03T08:30:55.452Z,248.00
2018-02-03T08:32:01.060Z,252.00
2018-02-03T08:33:06.456Z,260.00
2018-02-03T08:34:11.960Z,256.00
2018-02-03T08:35:18.521Z,260.00
2018-02-03T08:36:22.975Z,268.00
2018-02-03T08:37:28.535Z,280.00
2018-02-03T08:38:33.971Z,288.00
2018-02-03T08:39:39.491Z,296.00
2018-02-03T08:40:44.996Z,304.00
2018-02-03T08:41:51.500Z,308.00
2018-02-03T08:42:56.016Z,304.00
2018-02-03T08:44:01.525Z,296.00
2018-02-03T08:45:07.047Z,300.00
2018-02-03T08:46:12.533Z,300.00
2018-02-03T08:47:18.058Z,304.00
2018-02-03T08:48:24.558Z,296.00
2018-02-03T08:49:29.060Z,300.00
2018-02-03T08:50:34.579Z,296.00
2018-02-03T08:51:40.066Z,304.00
2018-02-03T08:52:45.581Z,312.00
2018-02-03T08:53:51.086Z,300.00
2018-02-03T08:54:57.603Z,272.00
2018-02-03T08:56:02.098Z,268.00
2018-02-03T08:57:07.596Z,276.00
2018-02-03T08:58:13.100Z,284.00
2018-02-03T08:59:18.625Z,292.00
2018-02-03T09:00:24.125Z,284.00
2018-02-03T09:01:30.658Z,280.00
2018-02-03T09:02:35.142Z,284.00
2018-02-03T09:03:40.658Z,296.00
2018-02-03T09:04:46.214Z,308.00
2018-02-03T09:05:51.669Z,320.00
2018-02-03T09:06:57.178Z,308.00
2018-02-03T09:08:03.700Z,308.00
2018-02-03T09:09:08.185Z,304.00
2018-02-03T09:10:13.685Z,300.00
2018-02-03T09:11:19.224Z,300.00
2018-02-03T09:12:24.726Z,300.00
2018-02-03T09:13:30.209Z,292.00
2018-02-03T09:14:36.736Z,292.00
2018-02-03T09:15:41.259Z,292.00
2018-02-03T09:16:46.738Z,292.00
2018-02-03T09:17:52.227Z,292.00
2018-02-03T09:18:57.755Z,288.00
2018-02-03T09:20:03.263Z,288.00
2018-02-03T09:21:09.781Z,292.00
2018-02-03T09:22:14.278Z,308.00
2018-02-03T09:23:19.768Z,308.00
2018-02-03T09:24:25.292Z,312.00
2018-02-03T09:25:30.773Z,320.00
2018-02-03T09:26:36.297Z,324.00
2018-02-03T09:27:42.811Z,324.00
2018-02-03T09:28:47.319Z,324.00
2018-02-03T09:29:52.822Z,332.00
2018-02-03T09:30:58.352Z,332.00
2018-02-03T09:32:03.840Z,336.00
2018-02-03T09:33:09.351Z,348.00
2018-02-03T09:34:15.876Z,360.00
2018-02-03T09:35:20.356Z,372.00
2018-02-03T09:36:25.864Z,376.00
2018-02-03T09:37:31.372Z,400.00
2018-02-03T09:38:36.890Z,420.00
2018-02-03T09:39:42.389Z,444.00
2018-02-03T09:40:48.893Z,456.00
2018-02-03T09:41:53.418Z,468.00
2018-02-03T09:42:58.923Z,476.00
2018-02-03T09:44:04.407Z,484.00
2018-02-03T09:45:09.921Z,504.00
2018-02-03T09:46:15.424Z,516.00
2018-02-03T09:47:21.950Z,544.00
2018-02-03T09:48:26.451Z,556.00
2018-02-03T09:49:31.964Z,580.00
2018-02-03T09:50:37.467Z,608.00
2018-02-03T09:51:42.985Z,620.00
2018-02-03T09:52:48.462Z,636.00
2018-02-03T09:53:55.006Z,644.00
2018-02-03T09:54:59.502Z,608.00
2018-02-03T09:56:04.987Z,596.00
2018-02-03T09:57:10.485Z,580.00
2018-02-03T09:58:16.008Z,588.00
2018-02-03T09:59:21.526Z,576.00
2018-02-03T10:00:28.037Z,560.00
2018-02-03T10:01:32.527Z,580.00
2018-02-03T10:02:38.041Z,604.00
2018-02-03T10:03:43.538Z,604.00
2018-02-03T10:04:49.062Z,600.00
2018-02-03T10:05:54.676Z,596.00
2018-02-03T10:07:01.083Z,576.00
2018-02-03T10:08:05.643Z,540.00
2018-02-03T10:09:11.076Z,524.00
2018-02-03T10:10:16.585Z,540.00
2018-02-03T10:11:22.100Z,552.00
2018-02-03T10:12:27.599Z,568.00
2018-02-03T10:13:34.127Z,580.00
2018-02-03T10:14:38.626Z,552.00
2018-02-03T10:15:44.133Z,496.00
2018-02-03T10:16:49.624Z,484.00
2018-02-03T10:17:55.171Z,520.00
2018-02-03T10:19:00.651Z,492.00
2018-02-03T10:20:07.181Z,500.00
2018-02-03T10:21:11.655Z,536.00
2018-02-03T10:22:17.157Z,628.00
2018-02-03T10:23:22.689Z,608.00
2018-02-03T10:24:28.182Z,576.00
2018-02-03T10:25:33.709Z,552.00
2018-02-03T10:26:40.265Z,536.00
2018-02-03T10:27:44.707Z,552.00
2018-02-03T10:28:50.217Z,492.00
2018-02-03T10:29:55.727Z,504.00
2018-02-03T10:31:01.248Z,504.00
2018-02-03T10:32:06.744Z,520.00
2018-02-03T10:33:13.262Z,564.00
2018-02-03T10:34:17.751Z,608.00
2018-02-03T10:35:23.272Z,664.00
2018-02-03T10:36:28.774Z,716.00
2018-02-03T10:37:34.293Z,748.00
2018-02-03T10:38:39.784Z,632.00
2018-02-03T10:39:46.309Z,656.00
2018-02-03T10:40:50.798Z,668.00
2018-02-03T10:41:56.315Z,628.00
2018-02-03T10:43:01.822Z,632.00
2018-02-03T10:44:07.391Z,608.00
2018-02-03T10:45:12.849Z,632.00
2018-02-03T10:46:19.363Z,640.00
2018-02-03T10:47:23.853Z,616.00
2018-02-03T10:48:29.360Z,616.00
2018-02-03T10:49:34.862Z,592.00
2018-02-03T10:50:40.382Z,556.00
2018-02-03T10:51:45.888Z,488.00
2018-02-03T10:52:52.423Z,436.00
2018-02-03T10:53:56.911Z,436.00
2018-02-03T10:55:02.430Z,408.00
2018-02-03T10:56:07.910Z,420.00
2018-02-03T10:57:13.421Z,420.00
2018-02-03T10:58:18.925Z,388.00
2018-02-03T10:59:25.442Z,396.00
2018-02-03T11:00:29.938Z,384.00
2018-02-03T11:01:35.461Z,376.00
2018-02-03T11:02:40.989Z,432.00
2018-02-03T11:03:46.476Z,556.00
2018-02-03T11:04:51.986Z,656.00
2018-02-03T11:05:58.622Z,656.00
2018-02-03T11:07:02.981Z,712.00
2018-02-03T11:08:08.494Z,760.00
2018-02-03T11:09:14.080Z,816.00
2018-02-03T11:10:19.503Z,840.00
2018-02-03T11:11:25.037Z,828.00
2018-02-03T11:12:31.530Z,864.00
2018-02-03T11:13:36.039Z,900.00
2018-02-03T11:14:41.557Z,936.00
2018-02-03T11:15:47.056Z,836.00
2018-02-03T11:16:52.589Z,1000.00
2018-02-03T11:17:58.081Z,992.00
2018-02-03T11:19:04.593Z,1024.00
2018-02-03T11:20:09.088Z,1052.00
2018-02-03T11:21:14.604Z,1072.00
2018-02-03T11:22:20.110Z,1064.00
2018-02-03T11:23:25.641Z,1076.00
2018-02-03T11:24:31.137Z,1092.00
2018-02-03T11:25:37.672Z,1080.00
2018-02-03T11:26:42.154Z,1072.00
2018-02-03T11:27:47.653Z,1048.00
2018-02-03T11:28:53.165Z,1032.00
2018-02-03T11:29:58.668Z,1036.00
2018-02-03T11:31:04.167Z,1036.00
2018-02-03T11:32:10.697Z,1076.00
2018-02-03T11:33:15.190Z,1048.00
2018-02-03T11:34:20.760Z,1000.00
2018-02-03T11:35:26.210Z,964.00
2018-02-03T11:36:31.737Z,964.00
2018-02-03T11:37:37.327Z,1004.00
2018-02-03T11:38:43.739Z,1052.00
2018-02-03T11:39:48.246Z,1120.00
2018-02-03T11:40:53.747Z,1184.00
2018-02-03T11:41:59.256Z,1256.00
2018-02-03T11:43:04.766Z,1288.00
2018-02-03T11:44:10.261Z,1260.00
2018-02-03T11:45:16.852Z,1224.00
2018-02-03T11:46:21.303Z,1212.00
2018-02-03T11:47:26.817Z,1172.00
2018-02-03T11:48:32.319Z,1184.00
2018-02-03T11:49:37.814Z,1272.00
2018-02-03T11:50:43.326Z,1576.00
2018-02-03T11:51:49.860Z,1496.00
2018-02-03T11:52:54.331Z,1272.00
2018-02-03T11:53:59.863Z,1416.00
2018-02-03T11:55:05.373Z,1708.00
2018-02-03T11:56:10.874Z,1860.00
2018-02-03T11:57:16.378Z,1524.00
2018-02-03T11:58:22.898Z,1476.00
2018-02-03T11:59:27.390Z,1188.00
2018-02-03T12:00:32.915Z,1416.00
2018-02-03T12:01:38.450Z,1268.00
2018-02-03T12:02:43.937Z,1332.00
2018-02-03T12:03:49.444Z,1316.00
2018-02-03T12:04:55.964Z,1640.00
2018-02-03T12:06:00.453Z,1600.00
2018-02-03T12:07:05.985Z,1396.00
2018-02-03T12:08:11.554Z,1564.00
2018-02-03T12:09:16.992Z,1460.00
2018-02-03T12:10:22.518Z,1280.00
2018-02-03T12:11:29.011Z,1132.00
2018-02-03T12:12:33.522Z,1252.00
2018-02-03T12:13:39.026Z,1304.00
2018-02-03T12:14:44.521Z,1444.00
2018-02-03T12:15:50.046Z,1400.00
2018-02-03T12:16:55.551Z,1540.00
2018-02-03T12:18:02.074Z,1776.00
2018-02-03T12:19:06.564Z,1568.00
2018-02-03T12:20:12.088Z,1300.00
2018-02-03T12:21:17.594Z,1464.00
2018-02-03T12:22:23.119Z,1580.00
2018-02-03T12:23:28.604Z,1712.00
2018-02-03T12:24:35.110Z,1756.00
2018-02-03T12:25:39.619Z,1932.00
2018-02-03T12:26:45.137Z,1744.00
2018-02-03T12:27:50.670Z,1880.00
2018-02-03T12:28:56.141Z,2072.00
2018-02-03T12:30:01.663Z,1732.00
2018-02-03T12:31:08.169Z,1680.00
2018-02-03T12:32:12.655Z,1720.00
2018-02-03T12:33:18.180Z,1752.00
2018-02-03T12:34:23.686Z,1588.00
2018-02-03T12:35:29.218Z,1356.00
2018-02-03T12:36:34.708Z,1544.00
2018-02-03T12:37:41.238Z,2116.00
2018-02-03T12:38:45.710Z,1988.00
2018-02-03T12:39:51.238Z,1796.00
2018-02-03T12:40:56.745Z,1584.00
2018-02-03T12:42:02.248Z,2244.00
2018-02-03T12:43:07.750Z,1880.00
2018-02-03T12:44:14.278Z,1792.00
2018-02-03T12:45:18.769Z,1964.00
2018-02-03T12:46:24.277Z,2904.00
2018-02-03T12:47:29.774Z,3360.00
2018-02-03T12:48:35.312Z,2728.00
2018-02-03T12:49:40.825Z,1808.00
2018-02-03T12:50:47.347Z,2524.00
2018-02-03T12:51:51.836Z,1412.00
2018-02-03T12:52:57.362Z,2788.00
2018-02-03T12:54:02.865Z,1456.00
2018-02-03T12:55:08.365Z,2192.00
2018-02-03T12:56:13.861Z,2128.00
2018-02-03T12:57:20.397Z,1856.00
2018-02-03T12:58:24.875Z,3444.00
2018-02-03T12:59:30.383Z,4180.00
2018-02-03T13:00:35.925Z,3572.00
2018-02-03T13:01:41.410Z,3952.00
2018-02-03T13:02:46.963Z,3916.00
2018-02-03T13:03:53.462Z,3300.00
2018-02-03T13:04:57.952Z,5704.00
2018-02-03T13:06:03.448Z,4552.00
2018-02-03T13:07:08.951Z,5700.00
2018-02-03T13:08:14.466Z,5272.00
2018-02-03T13:09:19.978Z,4560.00
2018-02-03T13:10:26.570Z,4852.00
2018-02-03T13:11:31.008Z,5184.00
2018-02-03T13:12:36.517Z,5940.00
2018-02-03T13:13:42.055Z,6580.00
2018-02-03T13:14:47.541Z,6952.00
2018-02-03T13:15:53.037Z,7188.00
2018-02-03T13:16:59.567Z,5880.00
2018-02-03T13:18:04.065Z,5364.00
2018-02-03T13:19:09.581Z,2976.00
2018-02-03T13:20:15.084Z,1408.00
2018-02-03T13:21:20.616Z,968.00
2018-02-03T13:22:26.131Z,884.00
2018-02-03T13:23:32.642Z,1136.00
2018-02-03T13:24:37.147Z,440.00
2018-02-03T13:25:42.654Z,616.00
2018-02-03T13:26:48.187Z,1164.00
2018-02-03T13:27:53.688Z,624.00
2018-02-03T13:28:59.174Z,576.00
2018-02-03T13:30:05.719Z,592.00
2018-02-03T13:31:10.224Z,820.00
2018-02-03T13:32:15.732Z,672.00
2018-02-03T13:33:21.258Z,224.00
2018-02-03T13:34:26.752Z,364.00
2018-02-03T13:35:32.275Z,596.00
2018-02-03T13:36:38.775Z,228.00
2018-02-03T13:37:43.296Z,472.00
2018-02-03T13:38:48.819Z,388.00
2018-02-03T13:39:54.313Z,364.00
2018-02-03T13:40:59.824Z,384.00
2018-02-03T13:42:05.329Z,408.00
2018-02-03T13:43:11.853Z,412.00
2018-02-03T13:44:16.368Z,424.00
2018-02-03T13:45:21.856Z,464.00
2018-02-03T13:46:27.377Z,452.00
2018-02-03T13:47:32.902Z,444.00
2018-02-03T13:48:38.393Z,464.00
2018-02-03T13:49:44.920Z,484.00
2018-02-03T13:50:49.400Z,480.00
2018-02-03T13:51:54.957Z,296.00
2018-02-03T13:53:00.447Z,488.00
2018-02-03T13:54:05.944Z,504.00
2018-02-03T13:55:11.461Z,536.00
2018-02-03T13:56:17.985Z,508.00
2018-02-03T13:57:22.472Z,560.00
2018-02-03T13:58:27.995Z,572.00
2018-02-03T13:59:33.488Z,620.00
2018-02-03T14:00:39.002Z,816.00
2018-02-03T14:01:44.524Z,1824.00